Tiempo atmosférico en la estación meteorológica de Córdoba, Prágdena, Córdoba (275 m.)



Fecha
DESCASC
Temp. máxima en grados centígrados (hora)
DESCASC
Temp. mínima en grados centígrados (hora)
DESCASC
Temp. media en grados centígrados
DESCASC
Racha de viento máxima en m/sg (hora)
DESCASC
Velocidad máxima media en intervalos de 10 minutos(hora)
DESCASC
Precipitaciones diarias en mm
DESCASC
Precipitaciones de 00:00 a 06:00 en mm
DESCASC
Precipitaciones de 06:00 a 12:00 en mm
DESCASC
Precipitaciones de 12:00 a 18:00 en mm
DESCASC
Precipitaciones de 18:00 a 24:00 en mm
DESCASC
18-08-2019 37.2 (16:10) 22.7 (08:20) 30 11.11 (17:50) 6.67 (17:20) 0 0 0 0 0
17-08-2019 40.8 (17:20) 21.9 (07:20) 31.3 10 (18:30) 6.39 (20:40) 0 0 0 0 0
16-08-2019 40 (17:30) 22.2 (07:50) 31.1 8.61 (18:20) 5.28 (18:50) 0 0 0 0 0
15-08-2019 41.1 (19:20) 21.3 (00:00) 31.2 7.22 (23:10) 4.17 (23:10) 0 0 0 0 0
14-08-2019 39.5 (19:10) 20.3 (00:00) 29.9 7.22 (00:50) 4.17 (00:50) 0 0 0 0 0
13-08-2019 37.8 (19:20) 18.6 (00:00) 28.2 6.67 (14:40) 3.33 (22:40) 0 0 0 0 0
12-08-2019 35.7 (19:00) 18.6 (00:00) 27.2 10 (17:40) 3.89 (15:40) 0 0 0 0 0
11-08-2019 33.1 (17:10) 18.9 (00:00) 26 9.44 (20:50) 5.83 (20:50) 0 0 0 0 0
10-08-2019 36 (18:30) 21.4 (00:00) 28.7 8.61 (19:00) 5 (20:10) 0 0 0 0 0
09-08-2019 35.5 (19:00) 19.4 (00:00) 27.4 10.56 (18:20) 6.11 (16:50) 0 0 0 0 0
08-08-2019 37.6 (17:50) 21.2 (00:00) 29.4 9.72 (19:30) 5.56 (20:50) 0 0 0 0 0
07-08-2019 34.9 (18:40) 20.3 (00:00) 27.6 7.22 (16:30) 3.61 (18:00) 0 0 0 0 0
06-08-2019 37.9 (17:20) 19.6 (00:00) 28.8 10 (18:20) 6.11 (18:30) 0 0 0 0 0
05-08-2019 38 (17:00) 20.5 (00:00) 29.3 9.44 (19:10) 6.39 (20:00) 0 0 0 0 0
04-08-2019 37.1 (17:40) 20.5 (00:00) 28.8 8.33 (18:00) 4.72 (20:20) 0 0 0 0 0
03-08-2019 37.1 (17:30) 20.4 (00:00) 28.7 10 (19:10) 6.67 (20:50) 0 0 0 0 0
02-08-2019 38.2 (18:40) 20.7 (00:00) 29.5 9.44 (19:00) 6.11 (20:50) 0 0 0 0 0
01-08-2019 35.8 (18:30) 22.2 (00:00) 29 9.17 (00:10) 5.83 (00:20) 0 0 0 0 0
31-07-2019 36.9 (18:40) 20.1 (00:00) 28.5 9.44 (22:40) 5.83 (23:00) 0 0 0 0 0
30-07-2019 37 (18:10) 20.1 (00:00) 28.6 6.67 (16:40) 3.89 (22:20) 0 0 0 0 0
29-07-2019 35.5 (18:50) 19 (00:00) 27.3 8.89 (17:40) 4.72 (19:50) 0 0 0 0 0
28-07-2019 33.3 (18:50) 20.3 (00:00) 26.8 10.28 (23:20) 6.11 (23:10) 0 0 0 0 0
27-07-2019 28.8 (16:20) 18 (00:00) 23.4 11.11 (17:50) 7.22 (20:40) 0 0 0 0 0
26-07-2019 32.1 (16:30) 20.7 (00:00) 26.4 12.22 (17:30) 7.5 (21:00) 0 0 0 0 0
25-07-2019 38.1 (17:50) 23.2 (00:00) 30.6 13.89 (19:40) 9.72 (20:10) 0 0 0 0 0
24-07-2019 38.9 (18:40) 23.6 (00:00) 31.3 10 (17:00) 5.83 (19:00) 0 0 0 0 0

Gráficas

Temp. máximas Temp. mínimas Temp. medias Precipitaciones Rachas de viento máximas Velocidades máximas media en intervalos de 10 minutos

Datos horarios

Fecha y hora oficial Temperatura (ºC) Velocidad del viento (km/h) Dirección del viento Racha (km/h) Dirección de racha Precipitación (mm) Presión (hPa) Tendencia (hPa) Humedad (%)
2019-08-22 23:00:00 26.9 15 Sudoeste 28 Sudoeste 0 -- -- 57
2019-08-22 22:00:00 28.4 15 Sudoeste 29 Sur 0 -- -- 53
2019-08-22 21:00:00 30.8 17 Sudoeste 30 Sudoeste 0 -- -- 46
2019-08-22 20:00:00 33.6 18 Sudoeste 35 Sudoeste 0 -- -- 39
2019-08-22 19:00:00 35.6 8 Sur 28 Noroeste 0 -- -- 29
2019-08-22 18:00:00 34.8 5 Nordeste 22 Este 0 -- -- 30
2019-08-22 17:00:00 35.3 11 Nordeste 22 Norte 0 -- -- 30
2019-08-22 16:00:00 34.4 11 Nordeste 23 Nordeste 0 -- -- 33
2019-08-22 15:00:00 34 9 Este 20 Este 0 -- -- 35
2019-08-22 14:00:00 32.1 9 Nordeste 27 Este 0 -- -- 41
2019-08-22 13:00:00 30.3 10 Nordeste 20 Nordeste 0 -- -- 46
2019-08-22 12:00:00 28.8 9 Nordeste 18 Este 0 -- -- 53
2019-08-22 11:00:00 27.2 6 Nordeste 14 Nordeste 0 -- -- 59
2019-08-22 10:00:00 25.3 6 Norte 11 Noroeste 0 -- -- 66
2019-08-22 09:00:00 23.6 5 Nordeste 8 Nordeste 0 -- -- 69
2019-08-22 08:00:00 22.2 4 Norte 6 Norte 0 -- -- 71
2019-08-22 07:00:00 22.9 0 Calma 5 Norte 0 -- -- 69
2019-08-22 06:00:00 23.5 2 Oeste 8 Nordeste 0 -- -- 67
2019-08-22 05:00:00 24.1 3 Oeste 14 Oeste 0 -- -- 65
2019-08-22 04:00:00 24.7 7 Sudoeste 15 Sudoeste 0 -- -- 63
2019-08-22 03:00:00 25.4 9 Sudoeste 17 Sudoeste 0 -- -- 59
2019-08-22 02:00:00 26.4 10 Sudoeste 24 Sudoeste 0 -- -- 56
2019-08-22 01:00:00 26.9 13 Sudoeste 30 Oeste 0 -- -- 54
2019-08-22 00:00:00 27.8 5 Sudoeste 10 Sur 0 -- -- 48
2019-08-21 23:00:00 29 10 Sur 23 Sur 0 -- -- 47
2019-08-21 22:00:00 30.5 13 Sur 22 Sudoeste 0 -- -- 42
2019-08-21 21:00:00 32.2 12 Sudoeste 21 Sur 0 -- -- 37
2019-08-21 20:00:00 34.1 12 Sudoeste 23 Oeste 0 -- -- 33
2019-08-21 19:00:00 35 15 Sudoeste 27 Oeste 0 -- -- 31
2019-08-21 18:00:00 35.1 12 Sudoeste 29 Oeste 0 -- -- 32
2019-08-21 17:00:00 34.2 14 Oeste 27 Oeste 0 -- -- 34
2019-08-21 16:00:00 33.8 9 Oeste 32 Oeste 0 -- -- 35
2019-08-21 15:00:00 32.5 4 Norte 22 Sur 0 -- -- 37
2019-08-21 14:00:00 31.8 10 Sudoeste 18 Oeste 0 -- -- 39
2019-08-21 13:00:00 31.1 8 Sur 19 Sudeste 0 -- -- 41
2019-08-21 12:00:00 29.8 3 Este 13 Este 0 -- -- 42
2019-08-21 11:00:00 28 5 Este 10 Este 0 -- -- 45
2019-08-21 10:00:00 25.8 5 Norte 9 Norte 0 -- -- 52
2019-08-21 09:00:00 23.1 3 Este 6 Nordeste 0 -- -- 43
2019-08-21 08:00:00 21.4 5 Este 6 Nordeste 0 -- -- 42
2019-08-21 07:00:00 21.4 0 Calma 8 Este 0 -- -- 40
2019-08-21 06:00:00 21.5 8 Nordeste 11 Nordeste 0 -- -- 41
2019-08-21 05:00:00 22.9 0 Calma 9 Norte 0 -- -- 39
2019-08-21 04:00:00 23.4 3 Norte 12 Sur 0 -- -- 36
2019-08-21 03:00:00 24.4 8 Sudoeste 14 Sudoeste 0 -- -- 35
2019-08-21 02:00:00 25 9 Sudoeste 27 Sudoeste 0 -- -- 29
2019-08-21 01:00:00 25.5 13 Sudoeste 19 Sudoeste 0 -- -- 27
2019-08-21 00:00:00 27.2 9 Sudoeste 17 Sur 0 -- -- 24
2019-08-20 23:00:00 28.5 8 Sur 12 Sudoeste 0 -- -- 21
2019-08-20 22:00:00 29.8 5 Sudoeste 13 Sudoeste 0 -- -- 19
2019-08-20 21:00:00 32.6 10 Sudoeste 20 Sudoeste 0 -- -- 16
2019-08-20 20:00:00 34.8 12 Sudoeste 22 Sur 0 -- -- 15
2019-08-20 19:00:00 35.2 8 Oeste 21 Sudoeste 0 -- -- 15
2019-08-20 18:00:00 35.6 6 Sudoeste 18 Sudoeste 0 -- -- 14
2019-08-20 17:00:00 34.5 10 Oeste 20 Oeste 0 -- -- 14
2019-08-20 16:00:00 34 9 Sudoeste 23 Sudoeste 0 -- -- 17
2019-08-20 15:00:00 33.4 9 Sur 19 Oeste 0 -- -- 20
2019-08-20 14:00:00 32.2 4 Nordeste 17 Sudoeste 0 -- -- 20
2019-08-20 13:00:00 30.3 8 Sudoeste 13 Oeste 0 -- -- 25
2019-08-20 12:00:00 28.7 3 Oeste 10 Sudoeste 0 -- -- 29
2019-08-20 11:00:00 25.8 7 Sudoeste 11 Sur 0 -- -- 36
2019-08-20 10:00:00 24.1 7 Sudoeste 12 Sur 0 -- -- 41
2019-08-20 09:00:00 20.9 2 Sudoeste 5 Sur 0 -- -- 49
2019-08-20 08:00:00 19.4 2 Sur 6 Sudoeste 0 -- -- 51
2019-08-20 07:00:00 20.1 4 Sur 10 Sur 0 -- -- 50
2019-08-20 06:00:00 20.6 7 Sudoeste 13 Sudoeste 0 -- -- 48
2019-08-20 05:00:00 21.1 8 Sudoeste 10 Sudoeste 0 -- -- 46
2019-08-20 04:00:00 22.2 5 Sudoeste 14 Sur 0 -- -- 44
2019-08-20 03:00:00 22.8 6 Sur 18 Sudoeste 0 -- -- 42
2019-08-20 02:00:00 24.3 11 Sudoeste 19 Sudoeste 0 -- -- 40
2019-08-20 01:00:00 25.5 8 Sur 21 Sudoeste 0 -- -- 37
2019-08-20 00:00:00 27.1 10 Sudoeste 27 Sudoeste 0 -- -- 34
2019-08-19 23:00:00 29.1 15 Sudoeste 30 Sudoeste 0 -- -- 31
2019-08-19 22:00:00 30.9 13 Sudoeste 29 Sudoeste 0 -- -- 37
2019-08-19 21:00:00 32.8 15 Sudoeste 32 Oeste 0 -- -- 31
2019-08-19 20:00:00 34.8 18 Sudoeste 30 Sudoeste 0 -- -- 25
2019-08-19 19:00:00 35.8 17 Sudoeste 31 Oeste 0 -- -- 24
2019-08-19 18:00:00 36.3 16 Sudoeste 29 Sudoeste 0 -- -- 22
2019-08-19 17:00:00 35.8 17 Sudoeste 33 Oeste 0 -- -- 24
2019-08-19 16:00:00 35 19 Oeste 36 Oeste 0 -- -- 26
2019-08-19 15:00:00 34.2 11 Sudoeste 28 Oeste 0 -- -- 29
2019-08-19 14:00:00 32.5 11 Oeste 23 Sudoeste 0 -- -- 31
2019-08-19 13:00:00 31 9 Sudoeste 20 Oeste 0 -- -- 36
2019-08-19 12:00:00 29.1 6 Sudoeste 15 Sudoeste 0 -- -- 43
2019-08-19 11:00:00 26.8 7 Sudoeste 14 Sur 0 -- -- 49
2019-08-19 10:00:00 24.3 7 Sur 11 Sur 0 -- -- 55
2019-08-19 09:00:00 22 3 Sur 6 Sur 0 -- -- 56
2019-08-19 08:00:00 20.2 0 Calma 6 Este 0 -- -- 59
2019-08-19 07:00:00 20.6 0 Calma 6 Oeste 0 -- -- 59
2019-08-19 06:00:00 21.7 4 Oeste 8 Sudoeste 0 -- -- 56
2019-08-19 05:00:00 22.1 4 Sur 11 Sur 0 -- -- 55
2019-08-19 04:00:00 22.8 7 Sur 10 Sur 0 -- -- 53
2019-08-19 03:00:00 23.6 8 Sudoeste 14 Sudoeste 0 -- -- 51
2019-08-19 02:00:00 24.9 8 Sur 21 Sur 0 -- -- 47
2019-08-19 01:00:00 26.2 11 Sudoeste 26 Sudoeste 0 -- -- 44
2019-08-19 00:00:00 27.8 15 Sudoeste 27 Sudoeste 0 -- -- 39
2019-08-18 23:00:00 29.7 12 Sudoeste 36 Sudoeste 0 -- -- 34
2019-08-18 22:00:00 31.9 13 Sudoeste 30 Sudoeste 0 -- -- 31
2019-08-18 21:00:00 33.8 18 Sudoeste 36 Sudoeste 0 -- -- 28
2019-08-18 20:00:00 35.9 17 Sudoeste 30 Sudoeste 0 -- -- 25
2019-08-18 19:00:00 36.4 19 Sudoeste 35 Oeste 0 -- -- 25
2019-08-18 18:00:00 36.8 22 Sudoeste 40 Sudoeste 0 -- -- 23
2019-08-18 17:00:00 37 19 Sudoeste 36 Oeste 0 -- -- 23
2019-08-18 16:00:00 37.1 16 Sudoeste 33 Oeste 0 -- -- 22
2019-08-18 15:00:00 35.6 14 Sudoeste 31 Oeste 0 -- -- 23
2019-08-18 14:00:00 34.7 14 Sudoeste 28 Sudoeste 0 -- -- 24
2019-08-18 13:00:00 33.3 11 Sudoeste 21 Oeste 0 -- -- 26
2019-08-18 12:00:00 31.4 10 Sudoeste 19 Oeste 0 -- -- 29
2019-08-18 11:00:00 29.7 4 Oeste 10 Sudoeste 0 -- -- 32
2019-08-18 10:00:00 27.6 3 Norte 6 Nordeste 0 -- -- 35
2019-08-18 09:00:00 24.3 3 Este 7 Norte 0 -- -- 40
2019-08-18 08:00:00 23.1 3 Nordeste 5 Nordeste 0 -- -- 42
2019-08-18 07:00:00 23.3 0 Calma 6 Norte 0 -- -- 41
2019-08-18 06:00:00 24.4 3 Sudoeste 6 Sudoeste 0 -- -- 40
2019-08-18 05:00:00 25.8 6 Sudoeste 9 Sudoeste 0 -- -- 38
2019-08-18 04:00:00 26.3 6 Sudoeste 12 Sur 0 -- -- 37
2019-08-18 03:00:00 27.4 9 Sudoeste 18 Sudoeste 0 -- -- 35
2019-08-18 02:00:00 28.3 10 Sudoeste 18 Sur 0 -- -- 34
2019-08-18 01:00:00 29 10 Sur 17 Sur 0 -- -- 32
2019-08-18 00:00:00 30.2 10 Sudoeste 19 Sur 0 -- -- 28
2019-08-17 23:00:00 32 12 Sudoeste 19 Sur 0 -- -- 24
2019-08-17 22:00:00 34.4 13 Sudoeste 25 Oeste 0 -- -- 23
2019-08-17 21:00:00 36.6 18 Oeste 31 Oeste 0 -- -- 20
2019-08-17 20:00:00 39.5 13 Sudoeste 32 Oeste 0 -- -- 18
2019-08-17 19:00:00 39.6 20 Oeste 36 Oeste 0 -- -- 18
2019-08-17 18:00:00 39.7 15 Oeste 28 Sur 0 -- -- 18
2019-08-17 17:00:00 40.4 13 Oeste 33 Oeste 0 -- -- 18
2019-08-17 16:00:00 40.4 9 Sudoeste 24 Sudoeste 0 -- -- 19
2019-08-17 15:00:00 39.7 8 Sudoeste 23 Oeste 0 -- -- 20
2019-08-17 14:00:00 38.7 5 Este 15 Oeste 0 -- -- 22
2019-08-17 13:00:00 36.7 5 Nordeste 10 Norte 0 -- -- 24
2019-08-17 12:00:00 34.9 5 Este 14 Este 0 -- -- 26
2019-08-17 11:00:00 32 6 Nordeste 13 Nordeste 0 -- -- 29
2019-08-17 10:00:00 28.7 7 Nordeste 10 Nordeste 0 -- -- 34
2019-08-17 09:00:00 25.2 3 Nordeste 8 Norte 0 -- -- 40
2019-08-17 08:00:00 21.9 5 Norte 7 Norte 0 -- -- 46
2019-08-17 07:00:00 22.2 3 Sudeste 4 Este 0 -- -- 45
2019-08-17 06:00:00 23.1 3 Noroeste 8 Norte 0 -- -- 43
2019-08-17 05:00:00 24.1 4 Sur 11 Sudoeste 0 -- -- 42
2019-08-17 04:00:00 25.2 7 Sudoeste 14 Sur 0 -- -- 40
2019-08-17 03:00:00 26.3 12 Sur 14 Sur 0 -- -- 38
2019-08-17 02:00:00 27 6 Sur 17 Sudoeste 0 -- -- 37
2019-08-17 01:00:00 28.4 9 Sudoeste 15 Sudoeste 0 -- -- 35
2019-08-17 00:00:00 29.8 11 Sudoeste 19 Sur 0 -- -- 33
2019-08-16 23:00:00 31.6 10 Sudoeste 19 Sudoeste 0 -- -- 29
2019-08-16 22:00:00 33.9 15 Oeste 21 Oeste 0 -- -- 26
2019-08-16 21:00:00 36 12 Sudoeste 26 Oeste 0 -- -- 23
2019-08-16 20:00:00 39.1 13 Sudoeste 30 Sudoeste 0 -- -- 20
2019-08-16 19:00:00 39.4 15 Oeste 31 Oeste 0 -- -- 20
2019-08-16 18:00:00 39.5 15 Sudoeste 28 Sudoeste 0 -- -- 20
2019-08-16 17:00:00 39.5 11 Sudoeste 28 Sudoeste 0 -- -- 19
2019-08-16 16:00:00 39 12 Sudoeste 30 Sudoeste 0 -- -- 21
2019-08-16 15:00:00 37.3 11 Sudoeste 29 Oeste 0 -- -- 23
2019-08-16 14:00:00 36.2 12 Sudoeste 27 Sudoeste 0 -- -- 25
2019-08-16 13:00:00 35.3 8 Sur 18 Sudoeste 0 -- -- 26
2019-08-16 12:00:00 33.5 6 Sudoeste 13 Sudoeste 0 -- -- 29
2019-08-16 11:00:00 31 4 Sudoeste 8 Oeste 0 -- -- 34
2019-08-16 10:00:00 29.3 0 Calma 6 Este 0 -- -- 38
2019-08-16 09:00:00 25.5 4 Nordeste 7 Nordeste 0 -- -- 44
2019-08-16 08:00:00 22.3 5 Norte 7 Norte 0 -- -- 49
2019-08-16 07:00:00 23.1 0 Calma 9 Sudoeste 0 -- -- 48
2019-08-16 06:00:00 24 7 Sudoeste 11 Sudoeste 0 -- -- 46
2019-08-16 05:00:00 25 9 Sur 15 Sur 0 -- -- 45
2019-08-16 04:00:00 25.8 7 Sudoeste 22 Sudoeste 0 -- -- 44
2019-08-16 03:00:00 26.8 14 Sur 22 Sur 0 -- -- 43
2019-08-16 02:00:00 27.9 9 Sudoeste 26 Sudoeste 0 -- -- 42
2019-08-16 01:00:00 28.8 15 Sudoeste 27 Sur 0 -- -- 39
2019-08-16 00:00:00 30 15 Sudoeste 26 Sur 0 -- -- 32
2019-08-15 23:00:00 31.3 9 Sudoeste 22 Sudoeste 0 -- -- 27
2019-08-15 22:00:00 33.3 9 Sur 18 Sudoeste 0 -- -- 22
2019-08-15 21:00:00 36.2 10 Sudoeste 18 Sudoeste 0 -- -- 20
2019-08-15 20:00:00 40 9 Sur 18 Sudoeste 0 -- -- 17
2019-08-15 19:00:00 40.9 7 Sur 18 Sur 0 -- -- 16
2019-08-15 18:00:00 40.3 8 Sudoeste 20 Sudoeste 0 -- -- 16
2019-08-15 17:00:00 39.4 6 Sur 22 Oeste 0 -- -- 17
2019-08-15 16:00:00 39.2 5 Sudeste 21 Sudoeste 0 -- -- 20
2019-08-15 15:00:00 38.4 4 Este 15 Oeste 0 -- -- 20
2019-08-15 14:00:00 36.4 7 Sudoeste 14 Sudoeste 0 -- -- 25
2019-08-15 13:00:00 34.9 6 Sudoeste 14 Sudoeste 0 -- -- 31
2019-08-15 12:00:00 32.1 3 Norte 10 Noroeste 0 -- -- 38
2019-08-15 11:00:00 29.7 2 Noroeste 8 Oeste 0 -- -- 42
2019-08-15 10:00:00 28 2 Sudoeste 6 Sudoeste 0 -- -- 49
2019-08-15 09:00:00 24.6 0 Calma 3 Este 0 -- -- 55
2019-08-15 08:00:00 21.5 2 Este 3 Este 0 -- -- 62
2019-08-15 07:00:00 21.9 0 Calma 5 Sur 0 -- -- 60
2019-08-15 06:00:00 22.8 2 Sur 6 Oeste 0 -- -- 58
2019-08-15 05:00:00 23.6 5 Sudoeste 11 Oeste 0 -- -- 56
2019-08-15 04:00:00 24.4 8 Sudoeste 14 Sudoeste 0 -- -- 50
2019-08-15 03:00:00 25.7 8 Sudoeste 12 Sudoeste 0 -- -- 47
2019-08-15 02:00:00 26.5 8 Sur 17 Sudoeste 0 -- -- 44
2019-08-15 01:00:00 27.8 11 Sudoeste 21 Sur 0 -- -- 38
2019-08-15 00:00:00 28.8 5 Oeste 11 Sudoeste 0 -- -- 30
2019-08-14 23:00:00 30.3 6 Sur 10 Sudoeste 0 -- -- 28
2019-08-14 22:00:00 31.8 6 Sudoeste 12 Sudoeste 0 -- -- 24
2019-08-14 21:00:00 35.1 7 Sudoeste 12 Sudoeste 0 -- -- 20
2019-08-14 20:00:00 38.3 9 Sudoeste 24 Sur 0 -- -- 17
2019-08-14 19:00:00 39.1 6 Sudeste 15 Sudeste 0 -- -- 17
2019-08-14 18:00:00 37.4 6 Oeste 23 Oeste 0 -- -- 19
2019-08-14 17:00:00 37.2 5 Nordeste 24 Sur 0 -- -- 20
2019-08-14 16:00:00 36.2 6 Noroeste 18 Sudoeste 0 -- -- 24
2019-08-14 15:00:00 35.8 10 Sudoeste 19 Oeste 0 -- -- 26
2019-08-14 14:00:00 34.9 8 Sur 17 Sur 0 -- -- 30
2019-08-14 13:00:00 33.5 4 Noroeste 11 Sudeste 0 -- -- 35
2019-08-14 12:00:00 31.4 3 Norte 8 Sudeste 0 -- -- 44
2019-08-14 11:00:00 27.5 3 Noroeste 8 Noroeste 0 -- -- 56
2019-08-14 10:00:00 25.6 3 Oeste 8 Oeste 0 -- -- 66
2019-08-14 09:00:00 22.9 4 Nordeste 6 Nordeste 0 -- -- 67
2019-08-14 08:00:00 20.5 4 Nordeste 6 Este 0 -- -- 71
2019-08-14 07:00:00 20.6 3 Este 6 Sudoeste 0 -- -- 71
2019-08-14 06:00:00 22.2 5 Oeste 11 Sudoeste 0 -- -- 75
2019-08-14 05:00:00 22.8 8 Sudoeste 16 Oeste 0 -- -- 74
2019-08-14 04:00:00 23.5 7 Sudoeste 20 Sudoeste 0 -- -- 70
2019-08-14 03:00:00 24.5 12 Sudoeste 22 Sur 0 -- -- 65
2019-08-14 02:00:00 25.4 10 Sudoeste 23 Sur 0 -- -- 52
2019-08-14 01:00:00 26.7 13 Sudoeste 26 Sur 0 -- -- 52
2019-08-14 00:00:00 27.9 9 Sudoeste 21 Sudoeste 0 -- -- 48
2019-08-13 23:00:00 28.9 9 Sudoeste 18 Sudoeste 0 -- -- 42
2019-08-13 22:00:00 30.4 6 Sudoeste 11 Sudoeste 0 -- -- 25
2019-08-13 21:00:00 33.5 8 Sudoeste 13 Sur 0 -- -- 23
2019-08-13 20:00:00 36.7 7 Sur 17 Sudoeste 0 -- -- 19
2019-08-13 19:00:00 37.2 3 Noroeste 22 Sudoeste 0 -- -- 17
2019-08-13 18:00:00 37.3 5 Sudeste 21 Oeste 0 -- -- 16
2019-08-13 17:00:00 35.6 7 Nordeste 17 Sudoeste 0 -- -- 16
2019-08-13 16:00:00 35.4 7 Sudeste 19 Sudoeste 0 -- -- 18
2019-08-13 15:00:00 34.7 7 Sudoeste 24 Oeste 0 -- -- 19
2019-08-13 14:00:00 33.4 10 Sudoeste 21 Oeste 0 -- -- 21
2019-08-13 13:00:00 31.7 6 Oeste 20 Oeste 0 -- -- 23
2019-08-13 12:00:00 30.6 4 Sudoeste 14 Oeste 0 -- -- 22
2019-08-13 11:00:00 28.3 4 Sudoeste 8 Oeste 0 -- -- 23
2019-08-13 10:00:00 25.4 3 Sudoeste 5 Sudoeste 0 -- -- 27
2019-08-13 09:00:00 21.5 2 Nordeste 7 Norte 0 -- -- 31
2019-08-13 08:00:00 18.6 0 Calma 4 Nordeste 0 -- -- 35
2019-08-13 07:00:00 19 3 Nordeste 4 Nordeste 0 -- -- 34
2019-08-13 06:00:00 19.4 3 Este 5 Sur 0 -- -- 32
2019-08-13 05:00:00 20.3 0 Calma 6 Sudeste 0 -- -- 27
2019-08-13 04:00:00 22.6 2 Sur 17 Norte 0 -- -- 26
2019-08-13 03:00:00 25.1 8 Norte 14 Nordeste 0 -- -- 22
2019-08-13 02:00:00 24.8 4 Oeste 14 Este 0 -- -- 22
2019-08-13 01:00:00 25 8 Este 13 Este 0 -- -- 21
2019-08-13 00:00:00 25.9 10 Nordeste 12 Nordeste 0 -- -- 21
2019-08-12 23:00:00 27.4 5 Noroeste 16 Oeste 0 -- -- 19
2019-08-12 22:00:00 28.9 12 Oeste 17 Oeste 0 -- -- 18
2019-08-12 21:00:00 31.5 2 Sudoeste 8 Norte 0 -- -- 16
2019-08-12 20:00:00 34.3 6 Norte 15 Noroeste 0 -- -- 15
2019-08-12 19:00:00 35.7 5 Oeste 19 Norte 0 -- -- 14
2019-08-12 18:00:00 35.1 6 Sur 36 Este 0 -- -- 15
2019-08-12 17:00:00 33.9 10 Nordeste 23 Norte 0 -- -- 15
2019-08-12 16:00:00 32.3 12 Norte 25 Nordeste 0 -- -- 17
2019-08-12 15:00:00 31.8 10 Nordeste 24 Nordeste 0 -- -- 16
2019-08-12 14:00:00 30.8 13 Este 26 Este 0 -- -- 19
2019-08-12 13:00:00 30.1 12 Este 28 Nordeste 0 -- -- 21
2019-08-12 12:00:00 26.6 12 Nordeste 22 Nordeste 0 -- -- 27
2019-08-12 11:00:00 24.4 7 Norte 18 Noroeste 0 -- -- 32
2019-08-12 10:00:00 22.1 8 Norte 14 Norte 0 -- -- 36
2019-08-12 09:00:00 20.5 7 Norte 13 Noroeste 0 -- -- 38
2019-08-12 08:00:00 18.6 6 Norte 9 Norte 0 -- -- 39
2019-08-12 07:00:00 18.7 5 Norte 8 Norte 0 -- -- 37
2019-08-12 06:00:00 19.7 4 Norte 16 Noroeste 0 -- -- 34
2019-08-12 05:00:00 20.1 6 Noroeste 11 Noroeste 0 -- -- 33
2019-08-12 04:00:00 20.1 0 Calma 4 Este 0 -- -- 32
2019-08-12 03:00:00 21 0 Calma 4 Noroeste 0 -- -- 31
2019-08-12 02:00:00 21.7 0 Calma 7 Sur 0 -- -- 30
2019-08-12 01:00:00 23.2 4 Sur 15 Noroeste 0 -- -- 29
2019-08-12 00:00:00 24.7 10 Noroeste 27 Noroeste 0 -- -- 27
2019-08-11 23:00:00 26.4 9 Noroeste 21 Norte 0 -- -- 24
2019-08-11 22:00:00 28.1 8 Noroeste 27 Noroeste 0 -- -- 19
2019-08-11 21:00:00 30.3 16 Noroeste 34 Oeste 0 -- -- 18
2019-08-11 20:00:00 31.9 19 Oeste 31 Oeste 0 -- -- 20
2019-08-11 19:00:00 32.4 15 Oeste 33 Oeste 0 -- -- 20
2019-08-11 18:00:00 32.7 15 Oeste 31 Oeste 0 -- -- 17
2019-08-11 17:00:00 33 15 Oeste 31 Oeste 0 -- -- 21
2019-08-11 16:00:00 32.5 11 Sudoeste 29 Oeste 0 -- -- 21
2019-08-11 15:00:00 31.7 6 Oeste 27 Oeste 0 -- -- 19
2019-08-11 14:00:00 30.3 10 Sudoeste 26 Oeste 0 -- -- 28
2019-08-11 13:00:00 28.2 6 Oeste 21 Oeste 0 -- -- 35
2019-08-11 12:00:00 26.8 8 Oeste 22 Oeste 0 -- -- 37
2019-08-11 11:00:00 25.5 7 Oeste 17 Oeste 0 -- -- 41
2019-08-11 10:00:00 23.7 6 Oeste 12 Oeste 0 -- -- 45
2019-08-11 09:00:00 20.4 4 Sudoeste 6 Sudoeste 0 -- -- 53
2019-08-11 08:00:00 19 2 Sudoeste 4 Sudeste 0 -- -- 55
2019-08-11 07:00:00 19.7 3 Sur 10 Sudoeste 0 -- -- 52
2019-08-11 06:00:00 20 7 Sudoeste 11 Sudoeste 0 -- -- 52
2019-08-11 05:00:00 21.2 8 Sudoeste 12 Sudoeste 0 -- -- 49
2019-08-11 04:00:00 22.2 7 Sur 22 Sudoeste 0 -- -- 47
2019-08-11 03:00:00 23.6 13 Sudoeste 30 Sudoeste 0 -- -- 44
2019-08-11 02:00:00 25.3 14 Sudoeste 24 Sudoeste 0 -- -- 40
2019-08-11 01:00:00 26.9 13 Sur 27 Sudoeste 0 -- -- 41
2019-08-11 00:00:00 28.8 17 Sudoeste 31 Sudoeste 0 -- -- 37
2019-08-10 23:00:00 30.3 12 Sudoeste 21 Oeste 0 -- -- 39
2019-08-10 22:00:00 31.6 17 Oeste 25 Oeste 0 -- -- 37
2019-08-10 21:00:00 33.3 18 Oeste 31 Sudoeste 0 -- -- 35
2019-08-10 20:00:00 35.1 13 Sudoeste 29 Sudoeste 0 -- -- 33
2019-08-10 19:00:00 35.3 17 Sudoeste 31 Oeste 0 -- -- 33
2019-08-10 18:00:00 35.7 11 Sudoeste 28 Oeste 0 -- -- 32
2019-08-10 17:00:00 35.3 18 Sudoeste 30 Sudoeste 0 -- -- 33
2019-08-10 16:00:00 34.2 10 Sudoeste 24 Sudoeste 0 -- -- 36
2019-08-10 15:00:00 33.3 5 Oeste 24 Oeste 0 -- -- 40
2019-08-10 14:00:00 31.6 9 Sudoeste 17 Oeste 0 -- -- 43
2019-08-10 13:00:00 30.5 6 Sudoeste 17 Oeste 0 -- -- 47
2019-08-10 12:00:00 29.2 5 Norte 13 Norte 0 -- -- 51
2019-08-10 11:00:00 27.1 3 Norte 10 Este 0 -- -- 56
2019-08-10 10:00:00 25.5 0 Calma 7 Sur 0 -- -- 62
2019-08-10 09:00:00 23.1 4 Sur 8 Sudeste 0 -- -- 76
2019-08-10 08:00:00 21.5 0 Calma 9 Sudoeste 0 -- -- 80
2019-08-10 07:00:00 21.8 4 Sudoeste 11 Sudoeste 0 -- -- 80
2019-08-10 06:00:00 22.3 6 Sudoeste 12 Sudoeste 0 -- -- 78
2019-08-10 05:00:00 23 8 Sudoeste 12 Sur 0 -- -- 74
2019-08-10 04:00:00 23.7 9 Sudoeste 21 Sudoeste 0 -- -- 72
2019-08-10 03:00:00 24.4 11 Sudoeste 19 Sudoeste 0 -- -- 69
2019-08-10 02:00:00 25.4 10 Sudoeste 21 Sudoeste 0 -- -- 62
2019-08-10 01:00:00 26.5 11 Sudoeste 24 Sudoeste 0 -- -- 57
2019-08-10 00:00:00 27.7 12 Sudoeste 28 Sudoeste 0 -- -- 56
2019-08-09 23:00:00 29.2 14 Sudoeste 33 Sudoeste 0 -- -- 49
2019-08-09 22:00:00 31.4 13 Sudoeste 26 Sudoeste 0 -- -- 38
2019-08-09 21:00:00 33.4 16 Sudoeste 30 Sudoeste 0 -- -- 30
2019-08-09 20:00:00 34.8 17 Sudoeste 31 Oeste 0 -- -- 29
2019-08-09 19:00:00 35.5 15 Sudoeste 38 Oeste 0 -- -- 29
2019-08-09 18:00:00 35.1 21 Oeste 36 Oeste 0 -- -- 32
2019-08-09 17:00:00 34.7 20 Sudoeste 35 Oeste 0 -- -- 32
2019-08-09 16:00:00 34.2 14 Oeste 30 Sudoeste 0 -- -- 33
2019-08-09 15:00:00 32.8 15 Oeste 30 Oeste 0 -- -- 36
2019-08-09 14:00:00 31.8 10 Sudoeste 25 Sudoeste 0 -- -- 39
2019-08-09 13:00:00 29.8 6 Sudoeste 19 Sudoeste 0 -- -- 44
2019-08-09 12:00:00 27.5 8 Sudoeste 18 Sudoeste 0 -- -- 51
2019-08-09 11:00:00 25.3 9 Sudoeste 15 Sudoeste 0 -- -- 57
2019-08-09 10:00:00 23.9 4 Sur 10 Sur 0 -- -- 61
2019-08-09 09:00:00 21.5 2 Sudoeste 5 Sudoeste 0 -- -- 66
2019-08-09 08:00:00 19.4 2 Norte 4 Oeste 0 -- -- 62
2019-08-09 07:00:00 19.6 4 Oeste 5 Oeste 0 -- -- 62
2019-08-09 06:00:00 20.7 2 Oeste 9 Sudoeste 0 -- -- 61
2019-08-09 05:00:00 21.8 6 Sudoeste 21 Sudoeste 0 -- -- 59
2019-08-09 04:00:00 22.4 12 Sudoeste 22 Sur 0 -- -- 57
2019-08-09 03:00:00 23.2 16 Sur 25 Sur 0 -- -- 48
2019-08-09 02:00:00 25 10 Sudoeste 17 Sur 0 -- -- 42
2019-08-09 01:00:00 26.8 12 Sur 28 Sudoeste 0 -- -- 37
2019-08-09 00:00:00 28.6 13 Sudoeste 23 Sudoeste 0 -- -- 35
2019-08-08 23:00:00 29.7 10 Sur 13 Sur 0 -- -- 27
2019-08-08 22:00:00 31.9 6 Sudoeste 26 Oeste 0 -- -- 21
2019-08-08 21:00:00 34.5 18 Oeste 29 Oeste 0 -- -- 23
2019-08-08 20:00:00 36.5 18 Oeste 35 Sudoeste 0 -- -- 19
2019-08-08 19:00:00 37.4 14 Sudoeste 32 Sudoeste 0 -- -- 19
2019-08-08 18:00:00 37.5 14 Sudoeste 34 Sur 0 -- -- 20
2019-08-08 17:00:00 37.4 13 Sudoeste 27 Sudoeste 0 -- -- 17
2019-08-08 16:00:00 36.6 10 Sur 28 Oeste 0 -- -- 21
2019-08-08 15:00:00 35.2 9 Sudeste 17 Sudoeste 0 -- -- 26
2019-08-08 14:00:00 33.8 7 Este 16 Sur 0 -- -- 29
2019-08-08 13:00:00 32 4 Este 11 Sudoeste 0 -- -- 32
2019-08-08 12:00:00 30.2 4 Sudeste 11 Oeste 0 -- -- 36
2019-08-08 11:00:00 27.7 3 Sur 12 Oeste 0 -- -- 45
2019-08-08 10:00:00 25.5 3 Sudoeste 9 Sudoeste 0 -- -- 52
2019-08-08 09:00:00 23 4 Sudoeste 9 Sur 0 -- -- 54
2019-08-08 08:00:00 21.3 2 Sudoeste 5 Sudoeste 0 -- -- 60
2019-08-08 07:00:00 21.6 3 Oeste 8 Sur 0 -- -- 54
2019-08-08 06:00:00 22.6 5 Sudoeste 6 Sur 0 -- -- 53
2019-08-08 05:00:00 23.1 5 Sur 8 Sudoeste 0 -- -- 48
2019-08-08 04:00:00 24.3 4 Sur 9 Sudoeste 0 -- -- 42
2019-08-08 03:00:00 25.8 4 Sur 8 Sudoeste 0 -- -- 39
2019-08-08 02:00:00 26.7 2 Sudoeste 5 Sur 0 -- -- 37
2019-08-08 01:00:00 27.7 3 Norte 6 Norte 0 -- -- 36
2019-08-08 00:00:00 28.7 0 Calma 14 Noroeste 0 -- -- 34
2019-08-07 23:00:00 29.8 10 Noroeste 17 Noroeste 0 -- -- 33
2019-08-07 22:00:00 31.4 7 Noroeste 22 Oeste 0 -- -- 31
2019-08-07 21:00:00 32.8 3 Noroeste 9 Noroeste 0 -- -- 28
2019-08-07 20:00:00 33.9 5 Noroeste 23 Oeste 0 -- -- 28
2019-08-07 19:00:00 34.5 9 Noroeste 21 Sudoeste 0 -- -- 26
2019-08-07 18:00:00 34.1 13 Oeste 26 Oeste 0 -- -- 27
2019-08-07 17:00:00 33.9 10 Sudoeste 26 Oeste 0 -- -- 28
2019-08-07 16:00:00 33.6 10 Sudoeste 21 Sudoeste 0 -- -- 28
2019-08-07 15:00:00 32.9 11 Oeste 21 Oeste 0 -- -- 28
2019-08-07 14:00:00 32 11 Oeste 22 Oeste 0 -- -- 31
2019-08-07 13:00:00 30.6 6 Oeste 15 Oeste 0 -- -- 36
2019-08-07 12:00:00 28.7 4 Sudoeste 9 Oeste 0 -- -- 40
2019-08-07 11:00:00 26.5 5 Sudoeste 10 Oeste 0 -- -- 44
2019-08-07 10:00:00 24.2 4 Oeste 12 Oeste 0 -- -- 47
2019-08-07 09:00:00 22.2 2 Noroeste 5 Sudoeste 0 -- -- 43
2019-08-07 08:00:00 20.3 0 Calma 5 Sudeste 0 -- -- 45
2019-08-07 07:00:00 20.9 4 Sudoeste 9 Sur 0 -- -- 44
2019-08-07 06:00:00 21.5 3 Sur 5 Sur 0 -- -- 43
2019-08-07 05:00:00 22.1 4 Oeste 14 Sur 0 -- -- 42
2019-08-07 04:00:00 23.6 12 Sur 19 Sur 0 -- -- 39
2019-08-07 03:00:00 24.6 12 Sur 19 Sur 0 -- -- 36
2019-08-07 02:00:00 24.9 11 Sur 16 Sur 0 -- -- 31
2019-08-07 01:00:00 26.4 9 Sudoeste 18 Sur 0 -- -- 26
2019-08-07 00:00:00 27.5 11 Sudoeste 18 Sudoeste 0 -- -- 23
2019-08-06 23:00:00 29.1 11 Sur 17 Sudoeste 0 -- -- 19
2019-08-06 22:00:00 31.3 10 Sudoeste 26 Oeste 0 -- -- 17
2019-08-06 21:00:00 34.1 21 Oeste 31 Oeste 0 -- -- 18
2019-08-06 20:00:00 36.7 18 Sudoeste 34 Oeste 0 -- -- 16
2019-08-06 19:00:00 37.4 17 Sudoeste 36 Oeste 0 -- -- 15
2019-08-06 18:00:00 37.7 15 Sudoeste 32 Oeste 0 -- -- 14
2019-08-06 17:00:00 37.6 17 Sudoeste 29 Sudoeste 0 -- -- 16
2019-08-06 16:00:00 36.9 10 Sudoeste 27 Sudoeste 0 -- -- 18
2019-08-06 15:00:00 35.9 9 Sudoeste 21 Sudoeste 0 -- -- 20
2019-08-06 14:00:00 34.1 5 Sudoeste 18 Sudoeste 0 -- -- 22
2019-08-06 13:00:00 32.5 5 Sur 14 Oeste 0 -- -- 25
2019-08-06 12:00:00 29.7 4 Sudoeste 10 Sudoeste 0 -- -- 29
2019-08-06 11:00:00 27.2 2 Nordeste 6 Norte 0 -- -- 34
2019-08-06 10:00:00 23.8 6 Norte 10 Norte 0 -- -- 41
2019-08-06 09:00:00 21.7 4 Norte 8 Norte 0 -- -- 41
2019-08-06 08:00:00 19.7 2 Nordeste 4 Nordeste 0 -- -- 44
2019-08-06 07:00:00 20.4 0 Calma 3 Noroeste 0 -- -- 42
2019-08-06 06:00:00 21.1 3 Oeste 9 Sur 0 -- -- 42
2019-08-06 05:00:00 22.2 7 Sudoeste 11 Sudoeste 0 -- -- 41
2019-08-06 04:00:00 22.9 9 Sur 12 Sur 0 -- -- 40
2019-08-06 03:00:00 24.1 9 Sudoeste 22 Sudoeste 0 -- -- 38
2019-08-06 02:00:00 25.3 14 Sudoeste 26 Sudoeste 0 -- -- 37
2019-08-06 01:00:00 27 18 Sudoeste 30 Sur 0 -- -- 35
2019-08-06 00:00:00 28.6 12 Sudoeste 26 Sur 0 -- -- 32
2019-08-05 23:00:00 30.5 11 Sudoeste 29 Sudoeste 0 -- -- 29
2019-08-05 22:00:00 32.6 15 Sudoeste 25 Sudoeste 0 -- -- 24
2019-08-05 21:00:00 35.4 15 Sudoeste 31 Sudoeste 0 -- -- 18
2019-08-05 20:00:00 36.9 23 Oeste 34 Oeste 0 -- -- 20
2019-08-05 19:00:00 37.7 18 Sudoeste 32 Sudoeste 0 -- -- 19
2019-08-05 18:00:00 37.5 16 Oeste 30 Oeste 0 -- -- 23
2019-08-05 17:00:00 38 14 Sudoeste 31 Oeste 0 -- -- 23
2019-08-05 16:00:00 37.1 13 Oeste 24 Sudoeste 0 -- -- 24
2019-08-05 15:00:00 35.8 6 Sudoeste 19 Noroeste 0 -- -- 25
2019-08-05 14:00:00 34.4 8 Sudoeste 14 Sudoeste 0 -- -- 28
2019-08-05 13:00:00 32.2 5 Sudoeste 15 Noroeste 0 -- -- 32
2019-08-05 12:00:00 29.9 4 Oeste 10 Sudoeste 0 -- -- 37
2019-08-05 11:00:00 28.2 2 Nordeste 6 Noroeste 0 -- -- 41
2019-08-05 10:00:00 25.7 4 Noroeste 9 Norte 0 -- -- 47
2019-08-05 09:00:00 23.4 4 Norte 8 Norte 0 -- -- 49
2019-08-05 08:00:00 20.9 4 Norte 6 Norte 0 -- -- 53
2019-08-05 07:00:00 21.1 3 Sur 4 Sur 0 -- -- 54
2019-08-05 06:00:00 21.8 0 Calma 5 Sudeste 0 -- -- 52
2019-08-05 05:00:00 22.2 4 Sudeste 10 Sudoeste 0 -- -- 50
2019-08-05 04:00:00 23.5 6 Sudoeste 13 Sur 0 -- -- 48
2019-08-05 03:00:00 24.6 10 Sur 15 Sur 0 -- -- 46
2019-08-05 02:00:00 25.4 8 Sur 17 Sur 0 -- -- 42
2019-08-05 01:00:00 26.8 9 Sudoeste 16 Sudoeste 0 -- -- 37
2019-08-05 00:00:00 28.3 9 Sudoeste 17 Sudoeste 0 -- -- 31
2019-08-04 23:00:00 29.5 7 Sudoeste 12 Sur 0 -- -- 23
2019-08-04 22:00:00 31.8 9 Sudoeste 19 Sudoeste 0 -- -- 21
2019-08-04 21:00:00 34.9 11 Sudoeste 27 Sudoeste 0 -- -- 19
2019-08-04 20:00:00 36.6 15 Sudoeste 30 Oeste 0 -- -- 20
2019-08-04 19:00:00 36.6 15 Oeste 29 Oeste 0 -- -- 23
2019-08-04 18:00:00 36.9 15 Oeste 30 Sudoeste 0 -- -- 23
2019-08-04 17:00:00 36.5 12 Oeste 28 Oeste 0 -- -- 24
2019-08-04 16:00:00 35.6 10 Oeste 23 Sudoeste 0 -- -- 29
2019-08-04 15:00:00 34.5 8 Sudoeste 18 Sudoeste 0 -- -- 28
2019-08-04 14:00:00 32.6 8 Sudoeste 18 Oeste 0 -- -- 28
2019-08-04 13:00:00 30.8 5 Sudoeste 15 Sudoeste 0 -- -- 32
2019-08-04 12:00:00 28.7 6 Sudoeste 16 Sudoeste 0 -- -- 36
2019-08-04 11:00:00 26.5 9 Sudoeste 17 Sudoeste 0 -- -- 41
2019-08-04 10:00:00 24.5 7 Sur 13 Sudoeste 0 -- -- 45
2019-08-04 09:00:00 22.4 4 Sudoeste 7 Oeste 0 -- -- 51
2019-08-04 08:00:00 20.8 2 Noroeste 5 Este 0 -- -- 50
2019-08-04 07:00:00 21.4 0 Calma 13 Sudoeste 0 -- -- 49
2019-08-04 06:00:00 22.3 7 Sudoeste 14 Sudoeste 0 -- -- 48
2019-08-04 05:00:00 23 5 Sudoeste 16 Sudoeste 0 -- -- 46
2019-08-04 04:00:00 24 5 Sudoeste 11 Sur 0 -- -- 43
2019-08-04 03:00:00 24.7 6 Sur 15 Sur 0 -- -- 41
2019-08-04 02:00:00 25.2 10 Sur 19 Sur 0 -- -- 40
2019-08-04 01:00:00 26.8 12 Sudoeste 20 Sudoeste 0 -- -- 34
2019-08-04 00:00:00 28 9 Sudoeste 19 Sudoeste 0 -- -- 32
2019-08-03 23:00:00 29.4 10 Sudoeste 17 Sudoeste 0 -- -- 28
2019-08-03 22:00:00 31.2 12 Sudoeste 30 Sudoeste 0 -- -- 25
2019-08-03 21:00:00 33.5 21 Oeste 33 Oeste 0 -- -- 26
2019-08-03 20:00:00 35.5 19 Oeste 36 Oeste 0 -- -- 21
2019-08-03 19:00:00 36.1 21 Oeste 33 Oeste 0 -- -- 24
2019-08-03 18:00:00 36.8 17 Sudoeste 33 Sudoeste 0 -- -- 21
2019-08-03 17:00:00 36.7 12 Sudoeste 31 Sudoeste 0 -- -- 24
2019-08-03 16:00:00 36.1 9 Sudoeste 26 Sudoeste 0 -- -- 27
2019-08-03 15:00:00 35.2 11 Sudoeste 25 Sudoeste 0 -- -- 25
2019-08-03 14:00:00 34 9 Sudoeste 19 Oeste 0 -- -- 25
2019-08-03 13:00:00 31.9 8 Oeste 17 Oeste 0 -- -- 24
2019-08-03 12:00:00 30.6 5 Sudoeste 13 Sudoeste 0 -- -- 24
2019-08-03 11:00:00 28.7 3 Oeste 8 Sudoeste 0 -- -- 27
2019-08-03 10:00:00 26.3 3 Sudoeste 5 Oeste 0 -- -- 29
2019-08-03 09:00:00 23 0 Calma 4 Noroeste 0 -- -- 33
2019-08-03 08:00:00 20.5 3 Este 6 Este 0 -- -- 35
2019-08-03 07:00:00 20.4 3 Este 5 Este 0 -- -- 35
2019-08-03 06:00:00 21.6 0 Calma 4 Este 0 -- -- 32
2019-08-03 05:00:00 22.4 0 Calma 10 Sudoeste 0 -- -- 31
2019-08-03 04:00:00 24 4 Sudoeste 14 Sudoeste 0 -- -- 29
2019-08-03 03:00:00 24.5 8 Sudoeste 11 Sudoeste 0 -- -- 29
2019-08-03 02:00:00 25.4 4 Sur 17 Sudoeste 0 -- -- 28
2019-08-03 01:00:00 26.4 10 Sur 17 Sudoeste 0 -- -- 26
2019-08-03 00:00:00 27.6 10 Sudoeste 15 Sur 0 -- -- 26
2019-08-02 23:00:00 29.6 8 Sudoeste 17 Oeste 0 -- -- 25
2019-08-02 22:00:00 32 13 Oeste 31 Oeste 0 -- -- 22
2019-08-02 21:00:00 34.7 20 Sudoeste 33 Oeste 0 -- -- 20
2019-08-02 20:00:00 37 15 Sudoeste 33 Sudoeste 0 -- -- 17
2019-08-02 19:00:00 37.6 17 Sudoeste 34 Sudoeste 0 -- -- 17
2019-08-02 18:00:00 37.8 14 Sudoeste 30 Sudoeste 0 -- -- 17
2019-08-02 17:00:00 37.2 14 Oeste 30 Oeste 0 -- -- 17
2019-08-02 16:00:00 36.9 14 Sudoeste 25 Oeste 0 -- -- 19
2019-08-02 15:00:00 35.7 5 Nordeste 18 Oeste 0 -- -- 21
2019-08-02 14:00:00 34.3 9 Oeste 15 Oeste 0 -- -- 23
2019-08-02 13:00:00 32.8 5 Oeste 12 Oeste 0 -- -- 26
2019-08-02 12:00:00 30.6 3 Norte 7 Sur 0 -- -- 29
2019-08-02 11:00:00 28.4 3 Este 6 Nordeste 0 -- -- 34
2019-08-02 10:00:00 26.1 3 Sudeste 7 Este 0 -- -- 39
2019-08-02 09:00:00 22.9 0 Calma 5 Oeste 0 -- -- 47
2019-08-02 08:00:00 20.7 3 Norte 4 Sur 0 -- -- 50
2019-08-02 07:00:00 21.2 3 Sur 6 Sur 0 -- -- 49
2019-08-02 06:00:00 22 3 Sur 7 Sur 0 -- -- 47
2019-08-02 05:00:00 22.7 6 Sur 12 Sudoeste 0 -- -- 46
2019-08-02 04:00:00 23.4 8 Sudoeste 12 Sudoeste 0 -- -- 45
2019-08-02 03:00:00 24.5 8 Sudoeste 22 Sudoeste 0 -- -- 45
2019-08-02 02:00:00 26.2 14 Sur 24 Sudoeste 0 -- -- 47
2019-08-02 01:00:00 27.9 11 Sudoeste 21 Sudoeste 0 -- -- 44
2019-08-02 00:00:00 29.2 12 Sudoeste 27 Oeste 0 -- -- 43
2019-08-01 23:00:00 30.5 14 Sudoeste 23 Sudoeste 0 -- -- 34
2019-08-01 22:00:00 32.1 9 Sudoeste 17 Sudoeste 0 -- -- 31
2019-08-01 21:00:00 34.3 11 Sudoeste 22 Sudoeste 0 -- -- 30
2019-08-01 20:00:00 35.6 12 Sudoeste 27 Sudoeste 0 -- -- 28
2019-08-01 19:00:00 35.7 14 Sudoeste 30 Oeste 0 -- -- 30
2019-08-01 18:00:00 35.3 13 Sudoeste 29 Oeste 0 -- -- 32
2019-08-01 17:00:00 34.8 7 Oeste 26 Oeste 0 -- -- 34
2019-08-01 16:00:00 34.5 11 Sudoeste 27 Sudoeste 0 -- -- 37
2019-08-01 15:00:00 33.2 7 Sudoeste 24 Sudoeste 0 -- -- 40
2019-08-01 14:00:00 31.2 11 Oeste 19 Oeste 0 -- -- 44
2019-08-01 13:00:00 29.8 8 Oeste 20 Oeste 0 -- -- 48
2019-08-01 12:00:00 28.5 12 Sudoeste 23 Oeste 0 -- -- 52
2019-08-01 11:00:00 27.2 10 Sudoeste 16 Sur 0 -- -- 57
2019-08-01 10:00:00 25.7 8 Sur 17 Sudoeste 0 -- -- 62
2019-08-01 09:00:00 23.8 5 Sudoeste 11 Sudoeste 0 -- -- 69
2019-08-01 08:00:00 22.2 0 Calma 8 Sur 0 -- -- 72
2019-08-01 07:00:00 22.6 5 Sur 13 Sur 0 -- -- 71
2019-08-01 06:00:00 23.1 7 Sur 17 Sur 0 -- -- 70
2019-08-01 05:00:00 23.6 11 Sur 20 Sur 0 -- -- 68
2019-08-01 04:00:00 24.2 13 Sudoeste 22 Sudoeste 0 -- -- 65
2019-08-01 03:00:00 24.7 16 Sudoeste 28 Sudoeste 0 -- -- 63
2019-08-01 02:00:00 25.4 11 Sudoeste 25 Sudoeste 0 -- -- 60
2019-08-01 01:00:00 25.9 15 Sudoeste 33 Sudoeste 0 -- -- 58
2019-08-01 00:00:00 26.5 15 Sudoeste 32 Sudoeste 0 -- -- 55
2019-07-31 23:00:00 27.9 21 Sudoeste 34 Sudoeste 0 -- -- 51
2019-07-31 22:00:00 30 16 Sudoeste 30 Sudoeste 0 -- -- 45
2019-07-31 21:00:00 32.8 15 Sudoeste 30 Sudoeste 0 -- -- 36
2019-07-31 20:00:00 35.1 19 Sudoeste 32 Sudoeste 0 -- -- 31
2019-07-31 19:00:00 36.3 18 Sudoeste 31 Sudoeste 0 -- -- 29
2019-07-31 18:00:00 36.4 10 Noroeste 24 Oeste 0 -- -- 27
2019-07-31 17:00:00 36.2 4 Noroeste 25 Oeste 0 -- -- 25
2019-07-31 16:00:00 35.8 9 Sur 20 Sudoeste 0 -- -- 25
2019-07-31 15:00:00 34.8 5 Este 14 Sudoeste 0 -- -- 26
2019-07-31 14:00:00 33.5 7 Sudoeste 17 Sudoeste 0 -- -- 27
2019-07-31 13:00:00 32.1 6 Sudoeste 15 Sudoeste 0 -- -- 28
2019-07-31 12:00:00 30.3 8 Sudoeste 14 Sudoeste 0 -- -- 31
2019-07-31 11:00:00 28.3 3 Oeste 10 Sudoeste 0 -- -- 35
2019-07-31 10:00:00 25.4 2 Sudoeste 9 Sur 0 -- -- 34
2019-07-31 09:00:00 21.5 6 Sur 9 Sur 0 -- -- 33
2019-07-31 08:00:00 20.2 0 Calma 5 Sudeste 0 -- -- 38
2019-07-31 07:00:00 21.3 3 Sudeste 6 Norte 0 -- -- 35
2019-07-31 06:00:00 21.7 4 Este 6 Nordeste 0 -- -- 29
2019-07-31 05:00:00 22.2 3 Sur 5 Sudoeste 0 -- -- 25
2019-07-31 04:00:00 22.9 4 Sudoeste 6 Sur 0 -- -- 24
2019-07-31 03:00:00 24 2 Sudoeste 9 Sur 0 -- -- 23
2019-07-31 02:00:00 25.1 7 Sudoeste 10 Sur 0 -- -- 22
2019-07-31 01:00:00 27.1 0 Calma 4 Nordeste 0 -- -- 20
2019-07-31 00:00:00 28.5 4 Nordeste 16 Noroeste 0 -- -- 20
2019-07-30 23:00:00 30.2 6 Noroeste 19 Oeste 0 -- -- 20
2019-07-30 22:00:00 31.9 12 Oeste 16 Oeste 0 -- -- 20
2019-07-30 21:00:00 34.8 9 Oeste 20 Oeste 0 -- -- 17
2019-07-30 20:00:00 36.5 9 Oeste 23 Oeste 0 -- -- 15
2019-07-30 19:00:00 36.7 13 Sudoeste 23 Sur 0 -- -- 18
2019-07-30 18:00:00 36.6 9 Sudoeste 22 Oeste 0 -- -- 19
2019-07-30 17:00:00 36.2 12 Sudoeste 24 Oeste 0 -- -- 20
2019-07-30 16:00:00 35.4 10 Oeste 20 Oeste 0 -- -- 21
2019-07-30 15:00:00 34.2 7 Sur 21 Oeste 0 -- -- 24
2019-07-30 14:00:00 32.7 5 Noroeste 14 Noroeste 0 -- -- 26
2019-07-30 13:00:00 31.1 5 Norte 16 Noroeste 0 -- -- 27
2019-07-30 12:00:00 29.1 4 Norte 13 Norte 0 -- -- 29
2019-07-30 11:00:00 26.6 4 Norte 12 Norte 0 -- -- 32
2019-07-30 10:00:00 24.9 5 Norte 9 Nordeste 0 -- -- 34
2019-07-30 09:00:00 22.4 2 Sudoeste 6 Noroeste 0 -- -- 39
2019-07-30 08:00:00 20.7 5 Norte 10 Norte 0 -- -- 42
2019-07-30 07:00:00 20.6 2 Noroeste 6 Norte 0 -- -- 41
2019-07-30 06:00:00 21.4 0 Calma 10 Noroeste 0 -- -- 39
2019-07-30 05:00:00 22.1 4 Norte 9 Noroeste 0 -- -- 37
2019-07-30 04:00:00 22.9 0 Calma 4 Este 0 -- -- 36
2019-07-30 03:00:00 23.3 4 Este 8 Noroeste 0 -- -- 37
2019-07-30 02:00:00 24.9 2 Sudoeste 9 Oeste 0 -- -- 37
2019-07-30 01:00:00 26 5 Sudoeste 12 Sur 0 -- -- 39
2019-07-30 00:00:00 28 6 Sur 20 Sudoeste 0 -- -- 38
2019-07-29 23:00:00 28.8 9 Sudoeste 22 Oeste 0 -- -- 30
2019-07-29 22:00:00 31.1 9 Sudoeste 24 Oeste 0 -- -- 25
2019-07-29 21:00:00 33.6 12 Sudoeste 23 Sudoeste 0 -- -- 23
2019-07-29 20:00:00 34.8 12 Oeste 27 Sudoeste 0 -- -- 22
2019-07-29 19:00:00 35.2 17 Oeste 30 Sudoeste 0 -- -- 21
2019-07-29 18:00:00 35 11 Sudoeste 32 Oeste 0 -- -- 23
2019-07-29 17:00:00 34.5 8 Sudoeste 27 Oeste 0 -- -- 25
2019-07-29 16:00:00 33.1 7 Sur 27 Oeste 0 -- -- 29
2019-07-29 15:00:00 32.3 9 Oeste 21 Oeste 0 -- -- 33
2019-07-29 14:00:00 30.6 5 Sudoeste 16 Sudoeste 0 -- -- 39
2019-07-29 13:00:00 28.5 4 Sudoeste 15 Oeste 0 -- -- 44
2019-07-29 12:00:00 26.2 8 Sudoeste 17 Oeste 0 -- -- 51
2019-07-29 11:00:00 23.9 8 Sudoeste 17 Sudoeste 0 -- -- 60
2019-07-29 10:00:00 22.3 10 Sudoeste 18 Sudoeste 0 -- -- 66
2019-07-29 09:00:00 20.5 6 Oeste 14 Oeste 0 -- -- 70
2019-07-29 08:00:00 19.1 4 Sudoeste 10 Sur 0 -- -- 73
2019-07-29 07:00:00 19.2 5 Sudoeste 13 Sur 0 -- -- 73
2019-07-29 06:00:00 19.8 7 Sudoeste 13 Sur 0 -- -- 70
2019-07-29 05:00:00 20.5 8 Sudoeste 20 Sudoeste 0 -- -- 69
2019-07-29 04:00:00 21.2 13 Sudoeste 22 Sur 0 -- -- 68
2019-07-29 03:00:00 22.3 14 Sudoeste 24 Sudoeste 0 -- -- 62
2019-07-29 02:00:00 23.5 12 Sur 24 Sudoeste 0 -- -- 59
2019-07-29 01:00:00 24.6 13 Sudoeste 26 Sur 0 -- -- 55
2019-07-29 00:00:00 25.9 15 Sudoeste 37 Oeste 0 -- -- 54
2019-07-28 23:00:00 27.7 11 Sudoeste 26 Sudoeste 0 -- -- 39
2019-07-28 22:00:00 29.4 10 Sudoeste 22 Sudoeste 0 -- -- 30
2019-07-28 21:00:00 31.3 12 Sudoeste 21 Sudoeste 0 -- -- 32
2019-07-28 20:00:00 32.9 9 Sudoeste 23 Sudoeste 0 -- -- 28
2019-07-28 19:00:00 32.9 15 Sudoeste 27 Oeste 0 -- -- 28
2019-07-28 18:00:00 32.5 16 Sudoeste 33 Oeste 0 -- -- 29
2019-07-28 17:00:00 32 10 Oeste 27 Sur 0 -- -- 31
2019-07-28 16:00:00 31.4 12 Sudoeste 27 Oeste 0 -- -- 34
2019-07-28 15:00:00 30.5 7 Sudoeste 16 Sudoeste 0 -- -- 39
2019-07-28 14:00:00 29.2 4 Oeste 18 Este 0 -- -- 46
2019-07-28 13:00:00 27 8 Nordeste 20 Nordeste 0 -- -- 53
2019-07-28 12:00:00 25.6 10 Norte 20 Noroeste 0 -- -- 59
2019-07-28 11:00:00 23.9 4 Este 13 Nordeste 0 -- -- 66
2019-07-28 10:00:00 21.9 3 Norte 9 Sudoeste 0 -- -- 73
2019-07-28 09:00:00 20.7 3 Sudoeste 10 Sudoeste 0 -- -- 78
2019-07-28 08:00:00 20.5 6 Sudoeste 15 Oeste 0 -- -- 79
2019-07-28 07:00:00 20.5 8 Sudoeste 13 Sudoeste 0 -- -- 78
2019-07-28 06:00:00 20.6 9 Sudoeste 18 Sudoeste 0 -- -- 78
2019-07-28 05:00:00 20.8 9 Sudoeste 19 Sudoeste 0 -- -- 77
2019-07-28 04:00:00 20.9 13 Sudoeste 25 Sudoeste 0 -- -- 76
2019-07-28 03:00:00 21.3 13 Sudoeste 26 Sudoeste 0 -- -- 77
2019-07-28 02:00:00 21.7 13 Sudoeste 23 Sudoeste 0 -- -- 77
2019-07-28 01:00:00 22.2 13 Sudoeste 25 Sudoeste 0 -- -- 75
2019-07-28 00:00:00 22.6 11 Sudoeste 24 Sudoeste 0 -- -- 72
2019-07-27 23:00:00 23.1 15 Sudoeste 33 Sudoeste 0 -- -- 70
2019-07-26 12:00:00 25.4 16 Sudoeste 28 Oeste 0 -- -- 64
2019-07-26 11:00:00 24.1 13 Sudoeste 23 Sudoeste 0 -- -- 68
2019-07-26 10:00:00 23.2 13 Sudoeste 24 Sudoeste 0 -- -- 69
2019-07-26 09:00:00 22.4 13 Sudoeste 24 Sudoeste 0 -- -- 68
2019-07-26 08:00:00 20.9 8 Sudoeste 13 Sudoeste 0 -- -- 68
2019-07-26 07:00:00 21 8 Sudoeste 13 Sudoeste 0 -- -- 67
2019-07-26 06:00:00 21.7 8 Sudoeste 17 Sudoeste 0 -- -- 66
2019-07-26 05:00:00 22.4 8 Sudoeste 26 Sudoeste 0 -- -- 63
2019-07-26 04:00:00 23.1 14 Sudoeste 32 Sudoeste 0 -- -- 58
2019-07-26 03:00:00 23.9 19 Sudoeste 33 Sur 0 -- -- 56
2019-07-26 02:00:00 24.7 19 Sudoeste 36 Sudoeste 0 -- -- 59
2019-07-26 01:00:00 26 16 Sudoeste 35 Sudoeste 0 -- -- 49
2019-07-26 00:00:00 28 17 Sudoeste 32 Sudoeste 0 -- -- 39
2019-07-25 23:00:00 29.4 16 Sudoeste 35 Sudoeste 0 -- -- 34
2019-07-25 22:00:00 31.2 18 Sudoeste 40 Sudoeste 0 -- -- 36
2019-07-25 21:00:00 32.6 31 Oeste 46 Oeste 0 -- -- 34
2019-07-25 20:00:00 34.6 33 Oeste 50 Oeste 0 -- -- 30
2019-07-25 19:00:00 36 27 Oeste 42 Oeste 0 -- -- 28
2019-07-25 18:00:00 37.2 24 Oeste 44 Sudoeste 0 -- -- 23
2019-07-25 17:00:00 37 16 Oeste 32 Sudoeste 0 -- -- 23
2019-07-25 16:00:00 36.1 14 Oeste 30 Oeste 0 -- -- 28
2019-07-25 15:00:00 35.6 11 Sudoeste 23 Sudoeste 0 -- -- 30
2019-07-25 14:00:00 34.5 5 Este 19 Sudoeste 0 -- -- 32
2019-07-25 13:00:00 33.1 7 Sudoeste 13 Sudoeste 0 -- -- 35
2019-07-25 12:00:00 30.9 6 Sudoeste 13 Oeste 0 -- -- 42
2019-07-25 11:00:00 28.8 4 Noroeste 13 Oeste 0 -- -- 50
2019-07-25 10:00:00 26.9 6 Oeste 14 Oeste 0 -- -- 56
2019-07-25 09:00:00 25.5 6 Sur 8 Sudoeste 0 -- -- 59
2019-07-25 08:00:00 23.5 2 Sur 9 Sur 0 -- -- 64
2019-07-25 07:00:00 23.6 6 Sur 11 Sur 0 -- -- 63
2019-07-25 06:00:00 24.4 8 Sur 11 Sur 0 -- -- 61
2019-07-25 05:00:00 25.1 8 Sur 13 Sur 0 -- -- 59
2019-07-25 04:00:00 25.9 5 Sur 19 Sudoeste 0 -- -- 55
2019-07-25 03:00:00 27.3 11 Sudoeste 23 Sudoeste 0 -- -- 52
2019-07-25 02:00:00 28.4 15 Oeste 28 Oeste 0 -- -- 50
2019-07-25 01:00:00 29.9 9 Sudoeste 26 Sudoeste 0 -- -- 43
2019-07-25 00:00:00 31.1 15 Sudoeste 31 Sudoeste 0 -- -- 30
2019-07-24 23:00:00 32.5 17 Sudoeste 29 Sudoeste 0 -- -- 27
2019-07-24 22:00:00 34.2 10 Sudoeste 26 Oeste 0 -- -- 26
2019-07-24 21:00:00 36.2 14 Sudoeste 33 Sudoeste 0 -- -- 28
2019-07-24 20:00:00 38.2 15 Sudoeste 35 Sudoeste 0 -- -- 21
2019-07-24 19:00:00 38.6 21 Sudoeste 35 Sudoeste 0 -- -- 21
2019-07-24 18:00:00 38.6 17 Sudoeste 33 Sudoeste 0 -- -- 23
2019-07-24 17:00:00 38.4 12 Sudoeste 36 Sudoeste 0 -- -- 24
2019-07-24 16:00:00 37.6 12 Sudoeste 27 Oeste 0 -- -- 26
2019-07-24 15:00:00 36.7 8 Sudoeste 24 Sudoeste 0 -- -- 28
2019-07-24 14:00:00 35.4 6 Sur 15 Sur 0 -- -- 32
2019-07-24 13:00:00 33.7 5 Sudoeste 14 Sur 0 -- -- 36
2019-07-24 12:00:00 31.4 3 Sur 13 Oeste 0 -- -- 45
2019-07-24 11:00:00 29.3 5 Sur 13 Sur 0 -- -- 54
2019-07-24 10:00:00 27.3 3 Sudoeste 9 Sudoeste 0 -- -- 59
2019-07-24 09:00:00 25.3 2 Sudoeste 4 Sudoeste 0 -- -- 64
2019-07-24 08:00:00 23.9 0 Calma 5 Sur 0 -- -- 65
2019-07-24 07:00:00 24.4 0 Calma 6 Sudoeste 0 -- -- 64
2019-07-24 06:00:00 24.6 3 Oeste 8 Sur 0 -- -- 63
2019-07-24 05:00:00 25.6 4 Sudoeste 11 Sur 0 -- -- 61
2019-07-24 04:00:00 26.3 5 Sur 18 Sur 0 -- -- 61
2019-07-24 03:00:00 27.1 11 Sur 19 Sudoeste 0 -- -- 59
2019-07-24 02:00:00 28.6 10 Sudoeste 23 Sudoeste 0 -- -- 53
2019-07-24 01:00:00 30.1 14 Sudoeste 25 Sudoeste 0 -- -- 49
2019-07-24 00:00:00 31.2 9 Sudoeste 21 Sudoeste 0 -- -- 46